createdAt,value
2019-03-08T00:01:20.554Z,98748.88
2019-03-08T00:04:07.695Z,98752.78
2019-03-08T00:06:46.656Z,98750.48
2019-03-08T00:09:18.061Z,98764.65
2019-03-08T00:11:50.303Z,98770.83
2019-03-08T00:14:23.700Z,98769.98
2019-03-08T00:16:58.404Z,98764.05
2019-03-08T00:19:33.428Z,98766.86
2019-03-08T00:22:04.641Z,98778.16
2019-03-08T00:24:37.008Z,98770.36
2019-03-08T00:27:08.761Z,98777.79
2019-03-08T00:29:39.925Z,98773.20
2019-03-08T00:32:18.057Z,98791.47
2019-03-08T00:34:49.531Z,98792.27
2019-03-08T00:37:23.300Z,98801.05
2019-03-08T00:39:55.178Z,98803.75
2019-03-08T00:42:27.224Z,98808.93
2019-03-08T00:44:58.843Z,98802.66
2019-03-08T00:47:31.294Z,98796.27
2019-03-08T00:50:05.714Z,98811.08
2019-03-08T00:52:40.443Z,98807.02
2019-03-08T00:55:12.646Z,98815.10
2019-03-08T00:57:43.596Z,98811.87
2019-03-08T01:00:17.971Z,98813.47
2019-03-08T01:02:51.174Z,98813.28
2019-03-08T01:05:22.176Z,98823.10
2019-03-08T01:07:53.839Z,98813.78
2019-03-08T01:10:28.848Z,98801.89
2019-03-08T01:13:01.850Z,98814.88
2019-03-08T01:15:33.845Z,98808.19
2019-03-08T01:18:11.494Z,98808.47
2019-03-08T01:20:44.986Z,98814.92
2019-03-08T01:23:18.353Z,98824.43
2019-03-08T01:25:53.565Z,98823.17
2019-03-08T01:28:25.495Z,98818.41
2019-03-08T01:31:06.966Z,98832.51
2019-03-08T01:33:29.485Z,98836.44
2019-03-08T01:36:04.336Z,98828.88
2019-03-08T01:38:35.756Z,98839.86
2019-03-08T01:41:07.327Z,98839.62
2019-03-08T01:43:39.772Z,98837.19
2019-03-08T01:46:11.585Z,98837.81
2019-03-08T01:48:44.370Z,98847.66
2019-03-08T01:51:24.405Z,98845.17
2019-03-08T01:53:57.348Z,98847.08
2019-03-08T01:56:31.135Z,98829.52
2019-03-08T01:59:04.341Z,98832.58
2019-03-08T02:01:35.751Z,98853.23
2019-03-08T02:04:09.143Z,98839.61
2019-03-08T02:06:40.164Z,98835.54
2019-03-08T02:09:32.299Z,98847.45
2019-03-08T02:12:04.652Z,98856.20
2019-03-08T02:14:39.735Z,98856.20
2019-03-08T02:17:16.471Z,98856.03
2019-03-08T02:19:48.733Z,98859.78
2019-03-08T02:22:26.756Z,98856.20
2019-03-08T02:24:58.574Z,98847.45
2019-03-08T02:27:29.615Z,98847.45
2019-03-08T02:30:01.757Z,98849.94
2019-03-08T02:32:38.524Z,98830.84
2019-03-08T02:35:10.238Z,98845.77
2019-03-08T02:37:41.324Z,98837.00
2019-03-08T02:40:38.695Z,98856.62
2019-03-08T02:43:15.724Z,98854.38
2019-03-08T02:45:50.740Z,98835.41
2019-03-08T02:48:27.730Z,98859.37
2019-03-08T02:50:58.983Z,98853.73
2019-03-08T02:53:30.947Z,98860.09
2019-03-08T02:56:08.320Z,98858.70
2019-03-08T02:58:45.745Z,98855.58
2019-03-08T03:01:24.238Z,98858.44
2019-03-08T03:04:00.084Z,98858.44
2019-03-08T03:06:38.291Z,98863.48
2019-03-08T03:09:10.149Z,98864.70
2019-03-08T03:11:41.092Z,98873.37
2019-03-08T03:14:13.024Z,98863.63
2019-03-08T03:16:44.803Z,98863.63
2019-03-08T03:19:16.714Z,98877.53
2019-03-08T03:21:50.563Z,98873.21
2019-03-08T03:24:22.452Z,98875.28
2019-03-08T03:26:54.360Z,98874.03
2019-03-08T03:29:26.289Z,98868.12
2019-03-08T03:31:58.079Z,98868.12
2019-03-08T03:34:29.326Z,98873.06
2019-03-08T03:37:01.205Z,98867.90
2019-03-08T03:39:33.420Z,98857.96
2019-03-08T03:42:09.526Z,98858.19
2019-03-08T03:44:41.856Z,98858.19
2019-03-08T03:47:14.282Z,98877.30
2019-03-08T03:49:47.688Z,98873.40
2019-03-08T03:52:19.582Z,98873.40
2019-03-08T03:54:50.568Z,98866.89
2019-03-08T03:57:24.711Z,98875.09
2019-03-08T03:59:57.868Z,98886.41
2019-03-08T04:02:31.388Z,98886.41
2019-03-08T04:05:03.142Z,98887.73
2019-03-08T04:07:41.078Z,98887.11
2019-03-08T04:10:15.401Z,98876.81
2019-03-08T04:12:47.291Z,98884.72
2019-03-08T04:15:19.743Z,98908.52
2019-03-08T04:17:51.837Z,98886.78
2019-03-08T04:20:23.673Z,98893.97
2019-03-08T04:22:55.580Z,98891.67
2019-03-08T04:25:28.136Z,98901.21
2019-03-08T04:28:00.089Z,98906.66
2019-03-08T04:30:31.938Z,98901.77
2019-03-08T04:33:03.838Z,98900.08
2019-03-08T04:35:35.589Z,98904.73
2019-03-08T04:38:07.768Z,98901.48
2019-03-08T04:40:39.659Z,98911.45
2019-03-08T04:43:11.505Z,98903.17
2019-03-08T04:45:43.778Z,98912.78
2019-03-08T04:48:17.175Z,98895.42
2019-03-08T04:50:50.790Z,98902.67
2019-03-08T04:53:23.866Z,98930.17
2019-03-08T04:55:56.396Z,98920.33
2019-03-08T04:58:30.969Z,98920.47
2019-03-08T05:01:06.081Z,98927.65
2019-03-08T05:03:37.155Z,98927.61
2019-03-08T05:06:09.055Z,98939.69
2019-03-08T05:08:40.755Z,98935.48
2019-03-08T05:11:13.365Z,98937.87
2019-03-08T05:13:47.649Z,98940.13
2019-03-08T05:16:23.524Z,98949.06
2019-03-08T05:18:55.889Z,98964.77
2019-03-08T05:21:27.703Z,98961.86
2019-03-08T05:23:59.622Z,98949.39
2019-03-08T05:26:31.489Z,98955.03
2019-03-08T05:29:04.134Z,98960.28
2019-03-08T05:31:38.142Z,98977.13
2019-03-08T05:34:10.924Z,98978.67
2019-03-08T05:36:43.047Z,98978.67
2019-03-08T05:39:26.280Z,98978.27
2019-03-08T05:42:01.448Z,98986.42
2019-03-08T05:44:53.024Z,98987.75
2019-03-08T05:47:24.726Z,99009.92
2019-03-08T05:50:01.251Z,99023.98
2019-03-08T05:52:32.858Z,99008.09
2019-03-08T05:55:06.458Z,99018.55
2019-03-08T05:57:37.863Z,99038.64
2019-03-08T06:00:15.632Z,99035.34
2019-03-08T06:02:50.989Z,99040.13
2019-03-08T06:05:26.207Z,99049.06
2019-03-08T06:07:59.336Z,99051.13
2019-03-08T06:10:34.680Z,99061.59
2019-03-08T06:13:07.722Z,99069.08
2019-03-08T06:15:40.560Z,99077.63
2019-03-08T06:18:14.255Z,99077.63
2019-03-08T06:20:50.765Z,99082.01
2019-03-08T06:23:42.165Z,99092.92
2019-03-08T06:26:20.236Z,99103.54
2019-03-08T06:28:51.960Z,99094.45
2019-03-08T06:31:25.364Z,99102.08
2019-03-08T06:33:59.977Z,99102.08
2019-03-08T06:36:36.539Z,99106.70
2019-03-08T06:39:14.781Z,99108.17
2019-03-08T06:41:56.429Z,99122.26
2019-03-08T06:44:50.961Z,99120.91
2019-03-08T06:47:33.208Z,99131.60
2019-03-08T06:50:19.322Z,99137.88
2019-03-08T06:52:56.050Z,99141.06
2019-03-08T06:55:33.571Z,99150.76
2019-03-08T06:58:12.564Z,99149.38
2019-03-08T07:06:43.902Z,99167.38
2019-03-08T07:09:33.688Z,99184.41
2019-03-08T07:12:05.647Z,99171.58
2019-03-08T07:14:55.474Z,99196.41
2019-03-08T07:17:45.403Z,99205.25
2019-03-08T07:20:35.831Z,99217.98
2019-03-08T07:23:45.291Z,99216.13
2019-03-08T07:26:34.974Z,99223.69
2019-03-08T07:29:43.804Z,99232.20
2019-03-08T07:36:07.781Z,99244.38
2019-03-08T07:42:28.192Z,99259.63
2019-03-08T07:45:17.697Z,99260.80
2019-03-08T07:48:15.610Z,99280.28
2019-03-08T07:54:35.606Z,99281.30
2019-03-08T07:57:27.837Z,99281.28
2019-03-08T08:00:26.366Z,99280.95
2019-03-08T08:06:45.492Z,99312.47
2019-03-08T08:13:04.246Z,99315.03
2019-03-08T08:15:54.652Z,99311.00
2019-03-08T08:18:53.415Z,99311.00
2019-03-08T08:21:48.085Z,99338.21
2019-03-08T08:24:44.830Z,99342.95
2019-03-08T08:27:34.118Z,99350.55
2019-03-08T08:30:24.047Z,99339.66
2019-03-08T08:33:16.730Z,99356.74
2019-03-08T08:36:20.649Z,99364.86
2019-03-08T08:39:10.353Z,99359.86
2019-03-08T08:41:59.924Z,99357.63
2019-03-08T08:44:49.509Z,99378.30
2019-03-08T08:47:58.121Z,99386.41
2019-03-08T08:54:19.131Z,99375.48
2019-03-08T08:57:27.767Z,99403.80
2019-03-08T09:00:38.882Z,99400.88
2019-03-08T09:03:28.518Z,99409.66
2019-03-08T09:09:21.122Z,99422.44
2019-03-08T09:12:49.084Z,99431.41
2019-03-08T09:15:38.735Z,99433.50
2019-03-08T09:18:47.359Z,99428.06
2019-03-08T09:21:37.057Z,99438.20
2019-03-08T09:24:39.024Z,99445.30
2019-03-08T09:27:29.525Z,99445.55
2019-03-08T09:33:41.892Z,99442.34
2019-03-08T09:36:51.397Z,99459.93
2019-03-08T09:40:00.073Z,99467.92
2019-03-08T09:43:09.954Z,99475.72
2019-03-08T09:46:00.885Z,99483.27
2019-03-08T09:48:59.836Z,99492.70
2019-03-08T09:55:50.673Z,99511.23
2019-03-08T10:02:02.811Z,99537.61
2019-03-08T10:04:52.436Z,99531.58
2019-03-08T10:08:02.159Z,99552.12
2019-03-08T10:10:52.620Z,99550.08
2019-03-08T10:14:01.245Z,99557.32
2019-03-08T10:22:50.514Z,99557.59
2019-03-08T10:26:00.740Z,99554.22
2019-03-08T10:29:34.749Z,99560.64
2019-03-08T10:32:48.850Z,99561.36
2019-03-08T10:35:57.519Z,99564.67
2019-03-08T10:39:11.416Z,99571.61
2019-03-08T10:42:04.577Z,99573.41
2019-03-08T10:45:15.362Z,99580.83
2019-03-08T10:48:22.241Z,99580.64
2019-03-08T10:57:27.589Z,99595.52
2019-03-08T11:00:18.434Z,99602.08
2019-03-08T11:03:30.713Z,99608.30
2019-03-08T11:06:22.626Z,99611.22
2019-03-08T11:12:36.738Z,99625.19
2019-03-08T11:15:38.255Z,99625.31
2019-03-08T11:18:39.956Z,99634.87
2019-03-08T11:21:51.060Z,99638.00
2019-03-08T11:24:56.987Z,99648.88
2019-03-08T11:27:57.367Z,99630.29
2019-03-08T11:31:00.748Z,99649.12
2019-03-08T11:34:10.248Z,99649.12
2019-03-08T11:37:16.044Z,99652.58
2019-03-08T11:40:15.718Z,99652.58
2019-03-08T11:46:53.799Z,99670.27
2019-03-08T11:52:59.551Z,99638.01
2019-03-08T11:59:34.616Z,99666.03
2019-03-08T12:02:26.898Z,99672.38
2019-03-08T12:05:57.333Z,99680.74
2019-03-08T12:08:20.005Z,99673.04
2019-03-08T12:11:48.579Z,99683.34
2019-03-08T12:24:42.769Z,99704.81
2019-03-08T12:30:57.737Z,99703.81
2019-03-08T12:33:48.272Z,99699.94
2019-03-08T12:40:06.065Z,99705.88
2019-03-08T12:43:11.239Z,99703.20
2019-03-08T12:45:57.325Z,99711.46
2019-03-08T12:49:06.323Z,99699.72
2019-03-08T12:55:11.784Z,99715.23
2019-03-08T12:58:31.613Z,99709.90
2019-03-08T13:05:15.454Z,99707.72
2019-03-08T13:10:55.103Z,99694.88
2019-03-08T13:16:44.016Z,99726.72
2019-03-08T13:23:07.131Z,99726.69
2019-03-08T13:25:59.287Z,99719.41
2019-03-08T13:28:30.993Z,99726.79
2019-03-08T13:31:25.880Z,99715.19
2019-03-08T13:46:00.812Z,99719.87
2019-03-08T13:49:06.784Z,99720.36
2019-03-08T13:51:46.621Z,99718.37
2019-03-08T13:54:37.263Z,99731.54
2019-03-08T14:00:32.511Z,99731.58
2019-03-08T14:12:25.960Z,99748.80
2019-03-08T14:18:41.828Z,99752.45
2019-03-08T14:21:32.505Z,99757.83
2019-03-08T14:27:04.827Z,99740.86
2019-03-08T14:29:36.412Z,99747.40
2019-03-08T14:32:26.876Z,99744.36
2019-03-08T14:35:03.978Z,99744.27
2019-03-08T14:37:37.058Z,99749.19
2019-03-08T14:40:28.417Z,99744.98
2019-03-08T14:43:18.000Z,99741.60
2019-03-08T14:49:07.784Z,99738.14
2019-03-08T14:55:23.891Z,99732.08
2019-03-08T14:57:34.686Z,99745.05
2019-03-08T15:00:07.117Z,99746.54
2019-03-08T15:06:11.033Z,99740.44
2019-03-08T15:11:46.155Z,99739.42
2019-03-08T15:15:11.318Z,99753.48
2019-03-08T15:20:34.681Z,99742.83
2019-03-08T15:23:06.328Z,99742.23
2019-03-08T15:25:50.564Z,99734.20
2019-03-08T15:28:11.341Z,99741.03
2019-03-08T15:30:45.197Z,99747.30
2019-03-08T15:33:15.948Z,99751.11
2019-03-08T15:38:59.124Z,99717.84
2019-03-08T15:42:03.370Z,99735.23
2019-03-08T15:44:41.568Z,99759.43
2019-03-08T15:47:32.537Z,99745.18
2019-03-08T15:50:08.292Z,99746.30
2019-03-08T15:52:38.281Z,99746.23
2019-03-08T15:55:10.027Z,99746.91
2019-03-08T15:57:59.805Z,99735.47
2019-03-08T16:00:53.848Z,99757.13
2019-03-08T16:09:35.832Z,99767.09
2019-03-08T16:12:29.105Z,99768.70
2019-03-08T16:21:35.114Z,99758.36
2019-03-08T16:24:12.554Z,99759.66
2019-03-08T16:27:03.931Z,99745.96
2019-03-08T16:29:55.132Z,99764.95
2019-03-08T16:32:59.131Z,99763.30
2019-03-08T16:35:18.635Z,99781.53
2019-03-08T16:38:28.778Z,99781.53
2019-03-08T16:41:38.221Z,99780.25
2019-03-08T16:44:31.922Z,99780.65
2019-03-08T16:47:42.551Z,99773.98
2019-03-08T16:50:32.605Z,99790.38
2019-03-08T16:53:23.436Z,99791.94
2019-03-08T16:56:32.983Z,99791.77
2019-03-08T16:59:45.750Z,99791.77
2019-03-08T17:02:48.430Z,99798.27
2019-03-08T17:06:26.431Z,99799.84
2019-03-08T17:09:00.540Z,99797.23
2019-03-08T17:11:51.038Z,99807.83
2019-03-08T17:14:56.132Z,99818.36
2019-03-08T17:18:02.858Z,99809.78
2019-03-08T17:21:02.106Z,99809.20
2019-03-08T17:24:11.311Z,99820.19
2019-03-08T17:30:33.549Z,99828.28
2019-03-08T17:36:50.869Z,99829.30
2019-03-08T17:39:37.804Z,99824.80
2019-03-08T17:42:28.963Z,99819.21
2019-03-08T17:45:18.633Z,99823.15
2019-03-08T17:51:18.642Z,99827.45
2019-03-08T17:54:28.138Z,99826.77
2019-03-08T17:57:19.000Z,99837.00
2019-03-08T18:00:29.437Z,99829.15
2019-03-08T18:03:19.052Z,99831.05
2019-03-08T18:06:30.590Z,99831.75
2019-03-08T18:15:57.416Z,99831.59
2019-03-08T18:18:40.297Z,99821.55
2019-03-08T18:21:30.908Z,99825.70
2019-03-08T18:24:39.556Z,99828.92
2019-03-08T18:27:42.572Z,99831.45
2019-03-08T18:33:48.489Z,99834.41
2019-03-08T18:36:50.974Z,99830.95
2019-03-08T18:40:16.964Z,99841.23
2019-03-08T18:43:26.435Z,99850.25
2019-03-08T18:46:28.349Z,99835.82
2019-03-08T18:49:27.187Z,99845.94
2019-03-08T18:52:39.149Z,99848.98
2019-03-08T18:55:48.944Z,99854.53
2019-03-08T18:58:40.614Z,99853.88
2019-03-08T19:01:49.310Z,99849.05
2019-03-08T19:04:57.908Z,99846.52
2019-03-08T19:08:06.510Z,99858.50
2019-03-08T19:10:58.004Z,99859.97
2019-03-08T19:14:06.696Z,99859.93
2019-03-08T19:17:10.060Z,99867.55
2019-03-08T19:20:18.680Z,99865.42
2019-03-08T19:23:03.472Z,99873.02
2019-03-08T19:26:14.130Z,99878.30
2019-03-08T19:28:53.783Z,99878.30
2019-03-08T19:31:31.467Z,99883.06
2019-03-08T19:35:00.334Z,99880.34
2019-03-08T19:38:03.579Z,99877.80
2019-03-08T19:44:11.337Z,99882.34
2019-03-08T19:47:02.260Z,99881.73
2019-03-08T19:50:11.769Z,99874.16
2019-03-08T19:53:02.600Z,99882.81
2019-03-08T19:56:11.144Z,99882.65
2019-03-08T19:59:03.781Z,99885.24
2019-03-08T20:02:13.274Z,99892.20
2019-03-08T20:04:57.063Z,99889.36
2019-03-08T20:11:14.953Z,99886.24
2019-03-08T20:14:09.824Z,99868.89
2019-03-08T20:17:22.510Z,99877.09
2019-03-08T20:20:44.042Z,99880.47
2019-03-08T20:23:35.811Z,99888.63
2019-03-08T20:26:34.515Z,99881.16
2019-03-08T20:29:28.627Z,99882.30
2019-03-08T20:32:39.946Z,99876.83
2019-03-08T20:36:01.694Z,99879.91
2019-03-08T20:38:50.207Z,99871.26
2019-03-08T20:41:40.484Z,99857.61
2019-03-08T20:44:50.044Z,99863.72
2019-03-08T20:50:34.933Z,99863.42
2019-03-08T20:53:18.720Z,99861.89
2019-03-08T20:55:59.174Z,99861.00
2019-03-08T21:01:50.869Z,99859.37
2019-03-08T21:04:22.509Z,99861.01
2019-03-08T21:09:45.638Z,99859.84
2019-03-08T21:12:35.980Z,99861.61
2019-03-08T21:18:34.552Z,99848.41
2019-03-08T21:24:33.650Z,99836.16
2019-03-08T21:27:14.833Z,99843.05
2019-03-08T21:33:14.491Z,99842.98
2019-03-08T21:38:45.645Z,99854.09
2019-03-08T21:41:36.387Z,99854.62
2019-03-08T21:44:27.064Z,99847.44
2019-03-08T21:47:33.225Z,99851.95
2019-03-08T21:50:23.882Z,99837.63
2019-03-08T21:53:14.648Z,99837.63
2019-03-08T21:55:46.231Z,99837.36
2019-03-08T21:58:35.841Z,99834.55
2019-03-08T22:01:45.925Z,99833.86
2019-03-08T22:07:46.648Z,99817.41
2019-03-08T22:10:36.157Z,99814.78
2019-03-08T22:13:06.956Z,99815.30
2019-03-08T22:16:17.142Z,99816.70
2019-03-08T22:19:40.089Z,99813.91
2019-03-08T22:22:31.731Z,99798.49
2019-03-08T22:24:52.142Z,99799.95
2019-03-08T22:28:00.845Z,99796.48
2019-03-08T22:33:54.165Z,99784.61
2019-03-08T22:36:47.127Z,99795.60
2019-03-08T22:39:36.997Z,99775.43
2019-03-08T22:48:41.866Z,99764.37
2019-03-08T22:54:33.839Z,99762.20
2019-03-08T23:00:08.645Z,99760.31
2019-03-08T23:05:49.327Z,99748.07
2019-03-08T23:08:20.391Z,99734.98
2019-03-08T23:14:11.653Z,99720.70
2019-03-08T23:17:02.761Z,99713.23
2019-03-08T23:19:53.574Z,99702.97
2019-03-08T23:22:23.482Z,99709.38
2019-03-08T23:31:19.179Z,99698.71
2019-03-08T23:34:09.844Z,99691.36
2019-03-08T23:46:12.696Z,99686.95
2019-03-08T23:54:48.589Z,99690.42
2019-03-08T23:57:19.369Z,99685.94
